sensor_id;sensor_type;location;lat;lon;timestamp;pressure;altitude;pressure_sealevel;temperature;humidity
81224;BME280;70698;44.402;18.522;2024-03-02T00:00:09;96683.00;;;8.92;70.22
81224;BME280;70698;44.402;18.522;2024-03-02T00:02:44;96688.28;;;8.77;70.21
81224;BME280;70698;44.402;18.522;2024-03-02T00:05:12;96695.44;;;8.69;71.45
81224;BME280;70698;44.402;18.522;2024-03-02T00:07:40;96695.78;;;8.80;68.46
81224;BME280;70698;44.402;18.522;2024-03-02T00:10:08;96695.78;;;8.80;68.38
81224;BME280;70698;44.402;18.522;2024-03-02T00:12:38;96698.59;;;8.79;68.29
81224;BME280;70698;44.402;18.522;2024-03-02T00:18:01;96698.16;;;8.75;70.82
81224;BME280;70698;44.402;18.522;2024-03-02T00:20:26;96694.16;;;8.79;68.38
81224;BME280;70698;44.402;18.522;2024-03-02T00:23:05;96699.03;;;8.82;68.27
81224;BME280;70698;44.402;18.522;2024-03-02T00:25:42;96706.28;;;8.80;69.02
81224;BME280;70698;44.402;18.522;2024-03-02T00:28:17;96701.09;;;8.87;67.59
81224;BME280;70698;44.402;18.522;2024-03-02T01:43:48;96693.44;;;8.41;69.96
81224;BME280;70698;44.402;18.522;2024-03-02T01:46:14;96683.59;;;8.43;69.87
81224;BME280;70698;44.402;18.522;2024-03-02T01:48:40;96684.13;;;8.39;70.04
81224;BME280;70698;44.402;18.522;2024-03-02T01:51:06;96674.66;;;8.38;70.61
81224;BME280;70698;44.402;18.522;2024-03-02T01:53:32;96686.41;;;8.42;70.70
81224;BME280;70698;44.402;18.522;2024-03-02T01:55:57;96683.84;;;8.34;73.35
81224;BME280;70698;44.402;18.522;2024-03-02T01:58:23;96678.03;;;8.09;74.63
81224;BME280;70698;44.402;18.522;2024-03-02T02:00:49;96652.91;;;7.85;74.74
81224;BME280;70698;44.402;18.522;2024-03-02T02:03:15;96680.16;;;7.91;75.14
81224;BME280;70698;44.402;18.522;2024-03-02T02:05:44;96679.25;;;7.61;77.12
81224;BME280;70698;44.402;18.522;2024-03-02T02:08:11;96673.34;;;7.67;77.33
81224;BME280;70698;44.402;18.522;2024-03-02T02:10:36;96670.50;;;7.91;72.69
81224;BME280;70698;44.402;18.522;2024-03-02T02:13:02;96672.59;;;7.73;75.98
81224;BME280;70698;44.402;18.522;2024-03-02T02:15:29;96674.84;;;7.99;72.90
81224;BME280;70698;44.402;18.522;2024-03-02T02:17:56;96673.31;;;8.04;74.72
81224;BME280;70698;44.402;18.522;2024-03-02T02:20:22;96680.06;;;7.99;74.79
81224;BME280;70698;44.402;18.522;2024-03-02T02:25:27;96678.13;;;7.78;75.68
81224;BME280;70698;44.402;18.522;2024-03-02T02:27:53;96680.13;;;7.30;79.29
81224;BME280;70698;44.402;18.522;2024-03-02T02:30:31;96685.63;;;7.35;79.85
81224;BME280;70698;44.402;18.522;2024-03-02T02:32:57;96663.31;;;7.48;76.47
81224;BME280;70698;44.402;18.522;2024-03-02T02:35:23;96663.38;;;7.62;75.56
81224;BME280;70698;44.402;18.522;2024-03-02T02:37:54;96676.97;;;7.81;75.50
81224;BME280;70698;44.402;18.522;2024-03-02T02:40:19;96677.84;;;7.73;75.22
81224;BME280;70698;44.402;18.522;2024-03-02T02:42:46;96675.53;;;7.93;73.70
81224;BME280;70698;44.402;18.522;2024-03-02T02:45:11;96673.13;;;7.68;76.27
81224;BME280;70698;44.402;18.522;2024-03-02T02:47:40;96670.72;;;7.67;76.95
81224;BME280;70698;44.402;18.522;2024-03-02T02:50:10;96677.50;;;7.76;74.28
81224;BME280;70698;44.402;18.522;2024-03-02T02:52:38;96670.69;;;7.90;72.68
81224;BME280;70698;44.402;18.522;2024-03-02T02:55:07;96677.91;;;8.02;73.22
81224;BME280;70698;44.402;18.522;2024-03-02T02:57:33;96655.44;;;7.56;77.13
81224;BME280;70698;44.402;18.522;2024-03-02T03:00:05;96685.00;;;7.56;77.78
81224;BME280;70698;44.402;18.522;2024-03-02T03:02:36;96695.34;;;7.50;79.18
81224;BME280;70698;44.402;18.522;2024-03-02T03:05:03;96693.66;;;7.34;80.51
81224;BME280;70698;44.402;18.522;2024-03-02T03:07:28;96695.13;;;7.37;80.86
81224;BME280;70698;44.402;18.522;2024-03-02T03:09:54;96668.84;;;7.07;81.43
81224;BME280;70698;44.402;18.522;2024-03-02T03:12:20;96692.50;;;7.06;82.40
81224;BME280;70698;44.402;18.522;2024-03-02T03:14:45;96682.38;;;7.03;81.59
81224;BME280;70698;44.402;18.522;2024-03-02T03:17:11;96682.69;;;7.08;81.86
81224;BME280;70698;44.402;18.522;2024-03-02T03:19:38;96702.75;;;7.15;80.70
81224;BME280;70698;44.402;18.522;2024-03-02T03:22:04;96694.25;;;7.13;80.89
81224;BME280;70698;44.402;18.522;2024-03-02T03:24:29;96687.06;;;7.15;81.47
81224;BME280;70698;44.402;18.522;2024-03-02T03:26:55;96679.97;;;7.01;82.18
81224;BME280;70698;44.402;18.522;2024-03-02T03:29:21;96693.50;;;7.27;78.97
81224;BME280;70698;44.402;18.522;2024-03-02T03:31:46;96697.22;;;7.41;79.58
81224;BME280;70698;44.402;18.522;2024-03-02T03:34:12;96699.31;;;7.46;78.47
81224;BME280;70698;44.402;18.522;2024-03-02T03:36:41;96700.97;;;7.39;79.58
81224;BME280;70698;44.402;18.522;2024-03-02T03:39:07;96679.97;;;7.32;79.46
81224;BME280;70698;44.402;18.522;2024-03-02T03:41:33;96687.66;;;7.48;77.51
81224;BME280;70698;44.402;18.522;2024-03-02T03:43:58;96683.84;;;7.36;79.39
81224;BME280;70698;44.402;18.522;2024-03-02T03:46:24;96703.88;;;7.21;82.55
81224;BME280;70698;44.402;18.522;2024-03-02T03:48:49;96687.31;;;7.28;80.06
81224;BME280;70698;44.402;18.522;2024-03-02T03:51:15;96702.66;;;7.31;80.47
81224;BME280;70698;44.402;18.522;2024-03-02T03:53:40;96710.81;;;6.98;81.56
81224;BME280;70698;44.402;18.522;2024-03-02T03:56:06;96693.03;;;6.93;81.32
81224;BME280;70698;44.402;18.522;2024-03-02T03:58:32;96711.34;;;6.93;82.04
81224;BME280;70698;44.402;18.522;2024-03-02T04:00:57;96708.50;;;7.03;81.57
81224;BME280;70698;44.402;18.522;2024-03-02T04:03:23;96712.59;;;7.05;81.24
81224;BME280;70698;44.402;18.522;2024-03-02T04:05:48;96710.13;;;7.12;80.94
81224;BME280;70698;44.402;18.522;2024-03-02T04:08:14;96696.72;;;6.76;83.13
81224;BME280;70698;44.402;18.522;2024-03-02T04:10:40;96715.41;;;6.57;84.53
81224;BME280;70698;44.402;18.522;2024-03-02T04:13:07;96725.28;;;6.77;83.95
81224;BME280;70698;44.402;18.522;2024-03-02T04:15:33;96711.59;;;6.75;82.85
81224;BME280;70698;44.402;18.522;2024-03-02T04:17:58;96725.00;;;6.72;84.36
81224;BME280;70698;44.402;18.522;2024-03-02T04:20:24;96715.16;;;6.74;83.11
81224;BME280;70698;44.402;18.522;2024-03-02T04:22:50;96732.31;;;6.69;83.76
81224;BME280;70698;44.402;18.522;2024-03-02T04:25:16;96724.53;;;6.61;83.80
81224;BME280;70698;44.402;18.522;2024-03-02T04:27:42;96725.97;;;6.71;83.13
81224;BME280;70698;44.402;18.522;2024-03-02T04:30:07;96721.91;;;6.61;83.31
81224;BME280;70698;44.402;18.522;2024-03-02T04:32:34;96732.94;;;6.79;82.29
81224;BME280;70698;44.402;18.522;2024-03-02T04:35:01;96727.72;;;6.79;80.32
81224;BME280;70698;44.402;18.522;2024-03-02T04:37:27;96732.31;;;6.77;81.19
81224;BME280;70698;44.402;18.522;2024-03-02T04:39:52;96731.31;;;6.78;83.02
81224;BME280;70698;44.402;18.522;2024-03-02T04:42:18;96736.34;;;6.87;81.83
81224;BME280;70698;44.402;18.522;2024-03-02T04:44:43;96745.59;;;6.98;79.83
81224;BME280;70698;44.402;18.522;2024-03-02T04:47:09;96748.72;;;6.93;81.03
81224;BME280;70698;44.402;18.522;2024-03-02T04:49:35;96751.00;;;6.97;78.12
81224;BME280;70698;44.402;18.522;2024-03-02T04:52:00;96747.78;;;6.78;81.63
81224;BME280;70698;44.402;18.522;2024-03-02T04:54:26;96758.44;;;6.77;82.02
81224;BME280;70698;44.402;18.522;2024-03-02T04:56:51;96756.16;;;6.66;82.81
81224;BME280;70698;44.402;18.522;2024-03-02T04:59:18;96758.13;;;6.72;78.98
81224;BME280;70698;44.402;18.522;2024-03-02T05:01:44;96764.47;;;6.69;80.92
81224;BME280;70698;44.402;18.522;2024-03-02T05:04:10;96765.94;;;6.64;82.21
81224;BME280;70698;44.402;18.522;2024-03-02T05:06:39;96763.88;;;6.43;85.04
81224;BME280;70698;44.402;18.522;2024-03-02T05:09:08;96771.88;;;6.33;84.53
81224;BME280;70698;44.402;18.522;2024-03-02T05:11:34;96768.63;;;6.15;85.78
81224;BME280;70698;44.402;18.522;2024-03-02T05:14:02;96781.34;;;6.10;86.70
81224;BME280;70698;44.402;18.522;2024-03-02T05:16:28;96778.28;;;6.07;87.35
81224;BME280;70698;44.402;18.522;2024-03-02T05:18:54;96779.72;;;6.01;86.26
81224;BME280;70698;44.402;18.522;2024-03-02T05:21:19;96767.44;;;5.61;88.02
81224;BME280;70698;44.402;18.522;2024-03-02T05:23:45;96791.72;;;5.70;87.65
81224;BME280;70698;44.402;18.522;2024-03-02T05:26:11;96768.06;;;5.63;87.34
81224;BME280;70698;44.402;18.522;2024-03-02T05:28:38;96784.25;;;5.83;87.46
81224;BME280;70698;44.402;18.522;2024-03-02T05:31:04;96768.25;;;5.70;87.25
81224;BME280;70698;44.402;18.522;2024-03-02T05:33:30;96792.88;;;5.83;87.00
81224;BME280;70698;44.402;18.522;2024-03-02T05:35:58;96776.09;;;5.86;87.61
81224;BME280;70698;44.402;18.522;2024-03-02T05:38:24;96775.28;;;5.85;86.80
81224;BME280;70698;44.402;18.522;2024-03-02T05:40:49;96797.09;;;5.60;88.66
81224;BME280;70698;44.402;18.522;2024-03-02T05:43:15;96798.88;;;5.59;90.66
81224;BME280;70698;44.402;18.522;2024-03-02T05:45:41;96798.13;;;5.33;90.60
81224;BME280;70698;44.402;18.522;2024-03-02T05:48:07;96791.00;;;5.43;90.97
81224;BME280;70698;44.402;18.522;2024-03-02T05:50:33;96804.22;;;5.50;91.61
81224;BME280;70698;44.402;18.522;2024-03-02T05:52:58;96810.59;;;5.55;91.31
81224;BME280;70698;44.402;18.522;2024-03-02T05:55:24;96808.81;;;5.64;91.44
81224;BME280;70698;44.402;18.522;2024-03-02T05:57:50;96812.72;;;5.60;91.45
81224;BME280;70698;44.402;18.522;2024-03-02T06:00:41;96814.03;;;5.64;90.11
81224;BME280;70698;44.402;18.522;2024-03-02T06:03:07;96817.94;;;5.60;91.39
81224;BME280;70698;44.402;18.522;2024-03-02T06:05:34;96823.00;;;5.61;89.50
81224;BME280;70698;44.402;18.522;2024-03-02T06:08:00;96811.00;;;5.35;90.89
81224;BME280;70698;44.402;18.522;2024-03-02T06:10:25;96819.25;;;5.14;92.53
81224;BME280;70698;44.402;18.522;2024-03-02T06:12:51;96813.25;;;5.22;93.50
81224;BME280;70698;44.402;18.522;2024-03-02T06:15:17;96830.41;;;5.32;92.61
81224;BME280;70698;44.402;18.522;2024-03-02T06:17:42;96833.22;;;5.55;92.55
81224;BME280;70698;44.402;18.522;2024-03-02T06:20:09;96827.25;;;5.79;90.80
81224;BME280;70698;44.402;18.522;2024-03-02T06:22:35;96826.44;;;5.70;90.65
81224;BME280;70698;44.402;18.522;2024-03-02T06:25:00;96827.94;;;5.81;89.91
81224;BME280;70698;44.402;18.522;2024-03-02T06:27:26;96823.25;;;5.92;89.22
81224;BME280;70698;44.402;18.522;2024-03-02T06:29:52;96821.13;;;6.04;88.49
81224;BME280;70698;44.402;18.522;2024-03-02T06:32:17;96820.78;;;5.99;89.46
81224;BME280;70698;44.402;18.522;2024-03-02T06:34:43;96827.16;;;6.29;88.51
81224;BME280;70698;44.402;18.522;2024-03-02T06:37:08;96829.94;;;6.35;89.14
81224;BME280;70698;44.402;18.522;2024-03-02T06:39:34;96829.31;;;6.41;86.08
81224;BME280;70698;44.402;18.522;2024-03-02T06:42:00;96831.41;;;6.46;84.75
81224;BME280;70698;44.402;18.522;2024-03-02T06:44:26;96822.13;;;6.35;86.88
81224;BME280;70698;44.402;18.522;2024-03-02T06:46:51;96816.88;;;6.43;86.49
81224;BME280;70698;44.402;18.522;2024-03-02T06:49:17;96822.28;;;6.50;85.22
81224;BME280;70698;44.402;18.522;2024-03-02T06:51:44;96825.50;;;6.68;82.81
81224;BME280;70698;44.402;18.522;2024-03-02T06:54:09;96835.13;;;6.76;82.99
81224;BME280;70698;44.402;18.522;2024-03-02T06:56:35;96829.94;;;6.52;84.97
81224;BME280;70698;44.402;18.522;2024-03-02T06:59:04;96835.16;;;6.43;86.94
81224;BME280;70698;44.402;18.522;2024-03-02T07:01:29;96847.22;;;6.61;87.40
81224;BME280;70698;44.402;18.522;2024-03-02T07:03:55;96837.09;;;6.74;86.36
81224;BME280;70698;44.402;18.522;2024-03-02T07:06:20;96839.09;;;6.56;87.28
81224;BME280;70698;44.402;18.522;2024-03-02T07:08:46;96839.53;;;6.91;84.88
81224;BME280;70698;44.402;18.522;2024-03-02T07:11:11;96845.38;;;6.93;86.46
81224;BME280;70698;44.402;18.522;2024-03-02T07:13:37;96845.06;;;6.97;86.27
81224;BME280;70698;44.402;18.522;2024-03-02T07:16:03;96834.75;;;6.95;86.56
81224;BME280;70698;44.402;18.522;2024-03-02T07:18:32;96850.09;;;7.06;86.09
81224;BME280;70698;44.402;18.522;2024-03-02T07:20:59;96859.69;;;7.14;84.73
81224;BME280;70698;44.402;18.522;2024-03-02T07:23:26;96852.25;;;7.42;82.79
81224;BME280;70698;44.402;18.522;2024-03-02T07:25:56;96851.91;;;7.45;81.32
81224;BME280;70698;44.402;18.522;2024-03-02T07:28:22;96856.50;;;7.82;78.55
81224;BME280;70698;44.402;18.522;2024-03-02T07:31:01;96857.69;;;8.02;77.72
81224;BME280;70698;44.402;18.522;2024-03-02T07:33:27;96855.41;;;8.21;76.71
81224;BME280;70698;44.402;18.522;2024-03-02T07:35:56;96849.00;;;8.24;76.85
81224;BME280;70698;44.402;18.522;2024-03-02T07:38:22;96857.06;;;8.45;77.13
81224;BME280;70698;44.402;18.522;2024-03-02T07:40:49;96860.47;;;8.69;76.13
81224;BME280;70698;44.402;18.522;2024-03-02T07:43:18;96838.34;;;8.71;75.74
81224;BME280;70698;44.402;18.522;2024-03-02T07:45:45;96857.34;;;9.02;74.46
81224;BME280;70698;44.402;18.522;2024-03-02T07:48:10;96848.88;;;9.15;73.19
81224;BME280;70698;44.402;18.522;2024-03-02T07:50:36;96852.75;;;9.34;72.34
81224;BME280;70698;44.402;18.522;2024-03-02T07:53:05;96850.75;;;9.65;71.53
81224;BME280;70698;44.402;18.522;2024-03-02T07:55:31;96860.41;;;9.79;70.90
81224;BME280;70698;44.402;18.522;2024-03-02T07:57:57;96849.94;;;10.01;69.39
81224;BME280;70698;44.402;18.522;2024-03-02T08:00:23;96858.31;;;10.25;69.21
81224;BME280;70698;44.402;18.522;2024-03-02T08:02:49;96856.34;;;10.55;66.77
81224;BME280;70698;44.402;18.522;2024-03-02T08:05:16;96855.25;;;10.71;64.10
81224;BME280;70698;44.402;18.522;2024-03-02T08:07:45;96852.56;;;10.86;65.27
81224;BME280;70698;44.402;18.522;2024-03-02T08:10:11;96847.72;;;10.89;65.51
81224;BME280;70698;44.402;18.522;2024-03-02T08:12:37;96854.13;;;11.08;64.57
81224;BME280;70698;44.402;18.522;2024-03-02T08:15:03;96852.81;;;11.25;64.37
81224;BME280;70698;44.402;18.522;2024-03-02T08:17:30;96838.69;;;11.33;66.06
81224;BME280;70698;44.402;18.522;2024-03-02T08:19:55;96852.00;;;11.59;63.94
81224;BME280;70698;44.402;18.522;2024-03-02T08:22:22;96830.75;;;11.67;63.13
81224;BME280;70698;44.402;18.522;2024-03-02T08:24:48;96848.91;;;11.90;60.20
81224;BME280;70698;44.402;18.522;2024-03-02T08:27:13;96837.97;;;11.93;59.29
81224;BME280;70698;44.402;18.522;2024-03-02T08:29:40;96856.50;;;12.32;60.76
81224;BME280;70698;44.402;18.522;2024-03-02T08:32:07;96854.91;;;12.58;59.49
81224;BME280;70698;44.402;18.522;2024-03-02T08:34:32;96857.34;;;12.52;59.04
81224;BME280;70698;44.402;18.522;2024-03-02T08:37:04;96832.59;;;12.67;56.85
81224;BME280;70698;44.402;18.522;2024-03-02T08:39:30;96851.06;;;12.86;57.78
81224;BME280;70698;44.402;18.522;2024-03-02T08:41:56;96840.28;;;13.08;56.29
81224;BME280;70698;44.402;18.522;2024-03-02T08:44:21;96841.88;;;13.35;57.32
81224;BME280;70698;44.402;18.522;2024-03-02T08:46:47;96842.72;;;13.29;55.85
81224;BME280;70698;44.402;18.522;2024-03-02T08:49:13;96839.06;;;13.36;56.43
81224;BME280;70698;44.402;18.522;2024-03-02T08:51:38;96841.66;;;13.50;54.58
81224;BME280;70698;44.402;18.522;2024-03-02T08:54:04;96835.72;;;13.61;54.11
81224;BME280;70698;44.402;18.522;2024-03-02T08:56:31;96845.38;;;13.87;51.86
81224;BME280;70698;44.402;18.522;2024-03-02T08:58:56;96839.34;;;14.11;55.68
81224;BME280;70698;44.402;18.522;2024-03-02T09:01:22;96834.59;;;13.88;53.54
81224;BME280;70698;44.402;18.522;2024-03-02T09:03:48;96823.75;;;14.41;54.44
81224;BME280;70698;44.402;18.522;2024-03-02T09:06:16;96834.03;;;14.55;51.32
81224;BME280;70698;44.402;18.522;2024-03-02T09:08:43;96834.16;;;14.67;53.02
81224;BME280;70698;44.402;18.522;2024-03-02T09:11:09;96833.34;;;14.67;51.80
81224;BME280;70698;44.402;18.522;2024-03-02T09:13:35;96830.16;;;14.58;50.62
81224;BME280;70698;44.402;18.522;2024-03-02T09:16:01;96834.03;;;14.80;50.57
81224;BME280;70698;44.402;18.522;2024-03-02T09:18:28;96829.34;;;14.82;48.89
81224;BME280;70698;44.402;18.522;2024-03-02T09:20:53;96826.38;;;14.97;51.13
81224;BME280;70698;44.402;18.522;2024-03-02T09:23:20;96827.59;;;15.37;48.58
81224;BME280;70698;44.402;18.522;2024-03-02T09:25:46;96835.03;;;15.47;48.69
81224;BME280;70698;44.402;18.522;2024-03-02T09:28:12;96821.13;;;15.33;48.07
81224;BME280;70698;44.402;18.522;2024-03-02T09:30:37;96824.75;;;15.57;48.16
81224;BME280;70698;44.402;18.522;2024-03-02T09:33:04;96826.94;;;15.97;48.85
81224;BME280;70698;44.402;18.522;2024-03-02T09:35:29;96827.00;;;15.90;49.17
81224;BME280;70698;44.402;18.522;2024-03-02T09:37:55;96828.97;;;16.13;46.44
81224;BME280;70698;44.402;18.522;2024-03-02T09:40:24;96825.16;;;16.09;47.69
81224;BME280;70698;44.402;18.522;2024-03-02T09:42:49;96823.53;;;16.08;48.07
81224;BME280;70698;44.402;18.522;2024-03-02T09:45:26;96815.09;;;16.11;46.86
81224;BME280;70698;44.402;18.522;2024-03-02T09:47:52;96815.84;;;16.18;46.13
81224;BME280;70698;44.402;18.522;2024-03-02T09:50:18;96820.22;;;16.24;46.88
81224;BME280;70698;44.402;18.522;2024-03-02T09:52:44;96825.50;;;16.84;43.17
81224;BME280;70698;44.402;18.522;2024-03-02T09:55:13;96819.72;;;16.87;41.26
81224;BME280;70698;44.402;18.522;2024-03-02T09:57:41;96817.88;;;17.22;41.88
81224;BME280;70698;44.402;18.522;2024-03-02T10:00:08;96822.47;;;17.15;43.18
81224;BME280;70698;44.402;18.522;2024-03-02T10:02:34;96809.44;;;17.25;40.84
81224;BME280;70698;44.402;18.522;2024-03-02T10:04:59;96822.78;;;17.77;43.51
81224;BME280;70698;44.402;18.522;2024-03-02T10:07:25;96820.13;;;17.77;44.00
81224;BME280;70698;44.402;18.522;2024-03-02T10:09:51;96819.56;;;18.31;41.24
81224;BME280;70698;44.402;18.522;2024-03-02T10:12:18;96813.47;;;17.91;43.02
81224;BME280;70698;44.402;18.522;2024-03-02T10:14:44;96821.28;;;17.69;43.94
81224;BME280;70698;44.402;18.522;2024-03-02T10:17:12;96825.00;;;18.08;41.84
81224;BME280;70698;44.402;18.522;2024-03-02T10:19:38;96817.97;;;18.02;40.48
81224;BME280;70698;44.402;18.522;2024-03-02T10:22:05;96811.84;;;18.01;42.71
81224;BME280;70698;44.402;18.522;2024-03-02T10:27:02;96814.97;;;17.35;41.68
81224;BME280;70698;44.402;18.522;2024-03-02T10:29:29;96820.19;;;16.42;43.22
81224;BME280;70698;44.402;18.522;2024-03-02T10:31:55;96826.16;;;15.78;42.58
81224;BME280;70698;44.402;18.522;2024-03-02T10:34:21;96829.44;;;15.37;45.15
81224;BME280;70698;44.402;18.522;2024-03-02T10:36:47;96823.94;;;15.38;46.70
81224;BME280;70698;44.402;18.522;2024-03-02T10:39:14;96824.28;;;15.24;44.55
81224;BME280;70698;44.402;18.522;2024-03-02T10:41:40;96817.56;;;15.21;46.39
81224;BME280;70698;44.402;18.522;2024-03-02T10:44:07;96820.88;;;15.17;46.11
81224;BME280;70698;44.402;18.522;2024-03-02T10:46:35;96821.94;;;15.34;46.10
81224;BME280;70698;44.402;18.522;2024-03-02T10:49:03;96818.09;;;15.12;45.25
81224;BME280;70698;44.402;18.522;2024-03-02T10:51:31;96824.56;;;16.07;44.61
81224;BME280;70698;44.402;18.522;2024-03-02T10:54:02;96813.47;;;16.40;43.62
81224;BME280;70698;44.402;18.522;2024-03-02T10:56:47;96815.44;;;16.44;41.33
81224;BME280;70698;44.402;18.522;2024-03-02T10:59:34;96813.09;;;17.47;44.54
81224;BME280;70698;44.402;18.522;2024-03-02T11:02:03;96802.31;;;17.77;44.43
81224;BME280;70698;44.402;18.522;2024-03-02T11:04:29;96800.22;;;17.79;38.69
81224;BME280;70698;44.402;18.522;2024-03-02T11:07:05;96798.34;;;16.70;40.04
81224;BME280;70698;44.402;18.522;2024-03-02T11:09:34;96804.00;;;16.32;41.34
81224;BME280;70698;44.402;18.522;2024-03-02T11:12:11;96798.44;;;16.75;40.20
81224;BME280;70698;44.402;18.522;2024-03-02T11:14:40;96799.47;;;16.21;42.80
81224;BME280;70698;44.402;18.522;2024-03-02T11:17:09;96802.66;;;16.11;43.34
81224;BME280;70698;44.402;18.522;2024-03-02T11:19:38;96800.50;;;16.20;44.93
81224;BME280;70698;44.402;18.522;2024-03-02T11:22:04;96793.59;;;17.42;43.62
81224;BME280;70698;44.402;18.522;2024-03-02T11:24:31;96805.38;;;16.76;41.48
81224;BME280;70698;44.402;18.522;2024-03-02T11:27:03;96794.50;;;17.59;42.05
81224;BME280;70698;44.402;18.522;2024-03-02T11:32:13;96777.78;;;18.60;41.53
81224;BME280;70698;44.402;18.522;2024-03-02T11:34:42;96786.00;;;18.75;39.79
81224;BME280;70698;44.402;18.522;2024-03-02T11:37:12;96793.59;;;18.22;39.42
81224;BME280;70698;44.402;18.522;2024-03-02T11:39:39;96768.09;;;18.71;39.37
81224;BME280;70698;44.402;18.522;2024-03-02T11:42:06;96776.06;;;19.04;40.93
81224;BME280;70698;44.402;18.522;2024-03-02T11:44:35;96782.69;;;18.85;39.44
81224;BME280;70698;44.402;18.522;2024-03-02T11:47:02;96767.28;;;18.70;37.28
81224;BME280;70698;44.402;18.522;2024-03-02T11:49:42;96771.53;;;19.05;38.29
81224;BME280;70698;44.402;18.522;2024-03-02T11:52:10;96761.59;;;19.39;37.12
81224;BME280;70698;44.402;18.522;2024-03-02T11:54:41;96749.97;;;20.15;34.10
81224;BME280;70698;44.402;18.522;2024-03-02T11:57:16;96761.25;;;20.49;36.17
81224;BME280;70698;44.402;18.522;2024-03-02T11:59:43;96762.53;;;20.41;36.65
81224;BME280;70698;44.402;18.522;2024-03-02T12:02:16;96760.66;;;19.06;34.32
81224;BME280;70698;44.402;18.522;2024-03-02T12:04:43;96772.47;;;18.77;34.89
81224;BME280;70698;44.402;18.522;2024-03-02T12:07:10;96773.97;;;18.11;37.24
81224;BME280;70698;44.402;18.522;2024-03-02T12:09:36;96770.34;;;18.96;35.19
81224;BME280;70698;44.402;18.522;2024-03-02T12:12:09;96760.69;;;20.20;33.52
81224;BME280;70698;44.402;18.522;2024-03-02T12:14:37;96754.75;;;20.72;33.39
81224;BME280;70698;44.402;18.522;2024-03-02T12:17:04;96760.97;;;20.45;31.73
81224;BME280;70698;44.402;18.522;2024-03-02T12:19:31;96752.13;;;20.77;35.27
81224;BME280;70698;44.402;18.522;2024-03-02T12:21:57;96751.25;;;20.66;35.26
81224;BME280;70698;44.402;18.522;2024-03-02T12:24:23;96749.81;;;20.53;32.91
81224;BME280;70698;44.402;18.522;2024-03-02T12:26:50;96753.28;;;19.52;34.33
81224;BME280;70698;44.402;18.522;2024-03-02T12:29:16;96750.63;;;19.52;36.68
81224;BME280;70698;44.402;18.522;2024-03-02T12:31:43;96747.25;;;19.01;33.84
81224;BME280;70698;44.402;18.522;2024-03-02T12:34:13;96749.78;;;18.91;35.11
81224;BME280;70698;44.402;18.522;2024-03-02T12:36:40;96735.47;;;19.35;34.20
81224;BME280;70698;44.402;18.522;2024-03-02T12:39:10;96744.84;;;19.82;35.15
81224;BME280;70698;44.402;18.522;2024-03-02T12:41:39;96749.38;;;18.82;35.01
81224;BME280;70698;44.402;18.522;2024-03-02T12:44:05;96737.25;;;19.73;33.59
81224;BME280;70698;44.402;18.522;2024-03-02T12:46:32;96742.75;;;20.37;33.16
81224;BME280;70698;44.402;18.522;2024-03-02T12:49:16;96738.13;;;19.35;33.51
81224;BME280;70698;44.402;18.522;2024-03-02T12:51:42;96733.38;;;20.67;32.25
81224;BME280;70698;44.402;18.522;2024-03-02T12:54:11;96742.09;;;21.36;33.19
81224;BME280;70698;44.402;18.522;2024-03-02T12:56:37;96730.09;;;22.31;30.28
81224;BME280;70698;44.402;18.522;2024-03-02T12:59:06;96732.22;;;22.29;29.86
81224;BME280;70698;44.402;18.522;2024-03-02T13:01:32;96730.06;;;22.16;28.81
81224;BME280;70698;44.402;18.522;2024-03-02T13:03:58;96734.78;;;21.83;29.73
81224;BME280;70698;44.402;18.522;2024-03-02T13:06:25;96733.78;;;20.53;30.43
81224;BME280;70698;44.402;18.522;2024-03-02T13:08:53;96732.91;;;19.89;33.07
81224;BME280;70698;44.402;18.522;2024-03-02T13:11:22;96731.50;;;20.08;33.85
81224;BME280;70698;44.402;18.522;2024-03-02T13:13:48;96722.22;;;20.80;31.98
81224;BME280;70698;44.402;18.522;2024-03-02T13:16:15;96734.13;;;19.55;33.47
81224;BME280;70698;44.402;18.522;2024-03-02T13:18:42;96714.59;;;20.56;33.05
81224;BME280;70698;44.402;18.522;2024-03-02T13:21:09;96724.28;;;20.09;31.96
81224;BME280;70698;44.402;18.522;2024-03-02T13:23:35;96724.53;;;19.15;32.75
81224;BME280;70698;44.402;18.522;2024-03-02T13:26:01;96723.19;;;19.34;33.79
81224;BME280;70698;44.402;18.522;2024-03-02T13:28:27;96722.38;;;19.12;32.38
81224;BME280;70698;44.402;18.522;2024-03-02T13:30:52;96708.28;;;20.73;34.31
81224;BME280;70698;44.402;18.522;2024-03-02T13:33:18;96715.97;;;20.64;32.48
81224;BME280;70698;44.402;18.522;2024-03-02T13:35:53;96719.97;;;19.76;32.21
81224;BME280;70698;44.402;18.522;2024-03-02T13:38:19;96725.09;;;18.79;34.87
81224;BME280;70698;44.402;18.522;2024-03-02T13:40:45;96723.47;;;18.44;34.47
81224;BME280;70698;44.402;18.522;2024-03-02T13:43:11;96721.44;;;18.18;34.24
81224;BME280;70698;44.402;18.522;2024-03-02T13:45:38;96722.00;;;18.20;33.44
81224;BME280;70698;44.402;18.522;2024-03-02T13:48:04;96730.91;;;18.42;32.46
81224;BME280;70698;44.402;18.522;2024-03-02T13:50:29;96731.19;;;18.29;32.64
81224;BME280;70698;44.402;18.522;2024-03-02T13:52:56;96721.25;;;17.91;33.21
81224;BME280;70698;44.402;18.522;2024-03-02T13:55:22;96723.13;;;17.79;34.32
81224;BME280;70698;44.402;18.522;2024-03-02T13:57:48;96724.75;;;17.80;33.41
81224;BME280;70698;44.402;18.522;2024-03-02T14:00:17;96727.63;;;17.62;34.41
81224;BME280;70698;44.402;18.522;2024-03-02T14:02:43;96726.22;;;17.59;33.57
81224;BME280;70698;44.402;18.522;2024-03-02T14:05:09;96727.88;;;17.37;34.80
81224;BME280;70698;44.402;18.522;2024-03-02T14:07:41;96727.59;;;17.22;36.02
81224;BME280;70698;44.402;18.522;2024-03-02T14:10:07;96736.72;;;17.03;35.52
81224;BME280;70698;44.402;18.522;2024-03-02T14:12:32;96725.84;;;17.16;34.03
81224;BME280;70698;44.402;18.522;2024-03-02T14:14:58;96731.75;;;17.18;35.36
81224;BME280;70698;44.402;18.522;2024-03-02T14:17:25;96727.69;;;17.27;35.66